createdAt,value
2022-11-30T00:01:12.070Z,9.00
2022-11-30T00:03:41.375Z,9.00
2022-11-30T00:06:11.927Z,9.10
2022-11-30T00:08:40.022Z,9.10
2022-11-30T00:11:12.503Z,9.10
2022-11-30T00:13:40.841Z,8.90
2022-11-30T00:16:09.616Z,9.00
2022-11-30T00:18:38.126Z,8.90
2022-11-30T00:21:08.941Z,9.10
2022-11-30T00:23:39.213Z,9.10
2022-11-30T00:26:09.766Z,9.10
2022-11-30T00:28:38.857Z,9.00
2022-11-30T00:31:08.731Z,9.00
2022-11-30T00:33:38.185Z,9.10
2022-11-30T00:36:10.089Z,9.10
2022-11-30T00:38:37.950Z,9.00
2022-11-30T00:41:06.133Z,9.00
2022-11-30T00:43:33.985Z,9.00
2022-11-30T00:46:02.129Z,9.00
2022-11-30T00:48:30.030Z,9.00
2022-11-30T00:50:57.889Z,9.00
2022-11-30T00:53:27.222Z,9.00
2022-11-30T00:55:55.014Z,9.10
2022-11-30T00:58:22.950Z,9.20
2022-11-30T01:00:50.939Z,9.00
2022-11-30T01:03:18.814Z,9.10
2022-11-30T01:05:46.654Z,9.10
2022-11-30T01:08:14.671Z,9.10
2022-11-30T01:10:45.233Z,9.10
2022-11-30T01:13:14.183Z,9.10
2022-11-30T01:15:44.690Z,9.10
2022-11-30T01:18:13.274Z,9.00
2022-11-30T01:20:42.278Z,9.10
2022-11-30T01:23:10.554Z,9.00
2022-11-30T01:25:38.573Z,9.10
2022-11-30T01:28:09.773Z,9.00
2022-11-30T01:30:37.803Z,8.80
2022-11-30T01:33:06.089Z,8.90
2022-11-30T01:35:34.030Z,9.00
2022-11-30T01:38:01.840Z,9.00
2022-11-30T01:40:29.720Z,8.90
2022-11-30T01:42:57.542Z,8.90
2022-11-30T01:45:26.871Z,8.90
2022-11-30T01:47:58.309Z,9.00
2022-11-30T01:50:30.067Z,9.00
2022-11-30T01:52:58.766Z,9.00
2022-11-30T01:55:30.463Z,8.90
2022-11-30T01:58:01.734Z,9.00
2022-11-30T02:00:31.254Z,8.90
2022-11-30T02:03:02.647Z,8.80
2022-11-30T02:05:31.096Z,8.70
2022-11-30T02:07:59.064Z,8.70
2022-11-30T02:10:30.119Z,8.90
2022-11-30T02:13:25.836Z,8.90
2022-11-30T02:16:05.261Z,9.00
2022-11-30T02:18:43.580Z,9.00
2022-11-30T02:21:16.532Z,9.00
2022-11-30T02:24:07.362Z,9.00
2022-11-30T02:26:50.297Z,9.00
2022-11-30T02:29:22.501Z,9.00
2022-11-30T02:31:56.097Z,9.00
2022-11-30T02:34:27.167Z,9.10
2022-11-30T02:36:58.127Z,9.20
2022-11-30T02:39:26.013Z,9.20
2022-11-30T02:41:53.804Z,9.30
2022-11-30T02:44:25.225Z,9.20
2022-11-30T02:47:13.633Z,9.20
2022-11-30T02:49:50.553Z,9.20
2022-11-30T02:52:19.824Z,9.00
2022-11-30T02:54:47.973Z,9.00
2022-11-30T02:57:16.033Z,9.10
2022-11-30T02:59:45.317Z,9.10
2022-11-30T03:02:13.795Z,9.10
2022-11-30T03:04:41.603Z,9.10
2022-11-30T03:07:09.521Z,9.10
2022-11-30T03:09:37.360Z,9.20
2022-11-30T03:12:05.386Z,9.30
2022-11-30T03:14:33.214Z,9.20
2022-11-30T03:17:02.360Z,9.20
2022-11-30T03:19:30.222Z,9.20
2022-11-30T03:21:58.089Z,9.30
2022-11-30T03:24:25.957Z,9.30
2022-11-30T03:26:54.159Z,9.20
2022-11-30T03:29:22.041Z,9.20
2022-11-30T03:31:49.947Z,9.30
2022-11-30T03:34:19.146Z,9.30
2022-11-30T03:36:46.983Z,9.30
2022-11-30T03:39:14.834Z,9.20
2022-11-30T03:41:42.690Z,9.20
2022-11-30T03:44:10.514Z,9.30
2022-11-30T03:46:38.454Z,9.30
2022-11-30T03:49:06.301Z,9.20
2022-11-30T03:51:35.567Z,9.20
2022-11-30T03:54:03.410Z,9.30
2022-11-30T03:56:31.239Z,9.30
2022-11-30T03:58:59.309Z,9.20
2022-11-30T04:01:28.138Z,9.20
2022-11-30T04:03:56.065Z,9.10
2022-11-30T04:06:23.889Z,9.20
2022-11-30T04:08:53.030Z,9.20
2022-11-30T04:11:20.981Z,9.20
2022-11-30T04:13:48.805Z,9.20
2022-11-30T04:16:16.770Z,9.10
2022-11-30T04:18:44.584Z,9.10
2022-11-30T04:21:12.540Z,9.10
2022-11-30T04:23:41.488Z,9.00
2022-11-30T04:26:13.607Z,9.10
2022-11-30T04:28:41.592Z,9.10
2022-11-30T04:31:10.528Z,9.10
2022-11-30T04:33:38.616Z,9.10
2022-11-30T04:36:08.089Z,9.20
2022-11-30T04:38:37.602Z,9.20
2022-11-30T04:41:08.761Z,9.00
2022-11-30T04:43:38.063Z,9.00
2022-11-30T04:46:06.879Z,9.00
2022-11-30T04:48:35.128Z,9.00
2022-11-30T04:51:03.394Z,9.00
2022-11-30T04:53:31.218Z,9.00
2022-11-30T04:55:59.119Z,9.00
2022-11-30T04:58:26.950Z,9.00
2022-11-30T05:00:56.337Z,9.00
2022-11-30T05:03:24.146Z,8.80
2022-11-30T05:05:51.998Z,8.70
2022-11-30T05:08:20.290Z,8.80
2022-11-30T05:10:53.210Z,8.80
2022-11-30T05:13:21.416Z,9.00
2022-11-30T05:15:49.284Z,9.00
2022-11-30T05:18:18.516Z,8.90
2022-11-30T05:20:49.154Z,8.80
2022-11-30T05:23:17.526Z,8.90
2022-11-30T05:25:45.628Z,8.90
2022-11-30T05:28:13.749Z,8.90
2022-11-30T05:30:42.087Z,8.80
2022-11-30T05:33:10.406Z,8.80
2022-11-30T05:35:39.886Z,8.80
2022-11-30T05:38:10.328Z,8.80
2022-11-30T05:40:38.174Z,8.90
2022-11-30T05:43:06.860Z,9.00
2022-11-30T05:45:34.826Z,9.00
2022-11-30T05:48:02.683Z,8.90
2022-11-30T05:50:30.789Z,8.90
2022-11-30T05:53:01.013Z,8.90
2022-11-30T05:55:31.070Z,8.90
2022-11-30T05:57:59.100Z,9.00
2022-11-30T06:00:27.077Z,9.00
2022-11-30T06:02:58.377Z,8.90
2022-11-30T06:05:27.047Z,8.80
2022-11-30T06:07:55.172Z,8.90
2022-11-30T06:10:27.227Z,9.00
2022-11-30T06:12:55.205Z,9.00
2022-11-30T06:15:23.199Z,9.00
2022-11-30T06:17:51.131Z,8.90
2022-11-30T06:20:19.112Z,9.00
2022-11-30T06:22:47.776Z,9.00
2022-11-30T06:25:16.010Z,9.00
2022-11-30T06:27:45.368Z,9.10
2022-11-30T06:30:14.383Z,9.00
2022-11-30T06:32:55.110Z,9.00
2022-11-30T06:35:23.056Z,9.10
2022-11-30T06:37:50.970Z,9.00
2022-11-30T06:40:18.877Z,9.00
2022-11-30T06:42:48.661Z,9.00
2022-11-30T06:45:16.733Z,8.90
2022-11-30T06:47:45.830Z,8.80
2022-11-30T06:50:16.523Z,8.80
2022-11-30T06:52:44.494Z,8.80
2022-11-30T06:55:12.447Z,8.70
2022-11-30T06:57:40.385Z,8.70
2022-11-30T07:00:12.499Z,8.70
2022-11-30T07:02:40.810Z,8.80
2022-11-30T07:05:09.129Z,8.90
2022-11-30T07:07:37.126Z,9.00
2022-11-30T07:10:05.356Z,9.00
2022-11-30T07:12:35.952Z,9.00
2022-11-30T07:15:03.937Z,9.00
2022-11-30T07:17:33.216Z,9.00
2022-11-30T07:20:01.194Z,9.00
2022-11-30T07:22:29.107Z,9.00
2022-11-30T07:25:14.370Z,9.10
2022-11-30T07:27:42.510Z,9.10
2022-11-30T07:30:11.571Z,9.10
2022-11-30T07:32:41.190Z,9.10
2022-11-30T07:35:09.598Z,9.10
2022-11-30T07:37:37.540Z,9.10
2022-11-30T07:40:06.439Z,9.00
2022-11-30T07:42:34.370Z,9.00
2022-11-30T07:45:02.328Z,9.20
2022-11-30T07:47:30.261Z,9.10
2022-11-30T07:49:59.428Z,9.10
2022-11-30T07:52:27.420Z,9.00
2022-11-30T07:54:55.272Z,8.80
2022-11-30T07:57:23.298Z,9.00
2022-11-30T07:59:51.252Z,9.00
2022-11-30T08:02:19.911Z,9.00
2022-11-30T08:04:48.542Z,9.10
2022-11-30T08:07:18.077Z,9.10
2022-11-30T08:09:46.120Z,9.20
2022-11-30T08:12:14.008Z,9.10
2022-11-30T08:15:17.502Z,9.20
2022-11-30T08:17:29.822Z,9.00
2022-11-30T08:19:57.730Z,9.00
2022-11-30T08:22:26.957Z,9.10
2022-11-30T08:24:54.886Z,8.90
2022-11-30T08:27:22.761Z,8.90
2022-11-30T08:29:50.728Z,8.90
2022-11-30T08:32:18.696Z,8.90
2022-11-30T08:34:46.995Z,8.90
2022-11-30T08:37:15.074Z,9.00
2022-11-30T08:39:44.401Z,9.00
2022-11-30T08:42:12.317Z,9.10
2022-11-30T08:44:40.232Z,9.10
2022-11-30T08:47:08.439Z,9.10
2022-11-30T08:49:36.472Z,8.90
2022-11-30T08:52:19.841Z,9.00
2022-11-30T08:54:49.508Z,9.00
2022-11-30T08:57:18.851Z,9.10
2022-11-30T08:59:47.442Z,9.20
2022-11-30T09:02:18.373Z,9.10
2022-11-30T09:04:48.901Z,9.10
2022-11-30T09:07:17.219Z,9.10
2022-11-30T09:09:45.140Z,9.10
2022-11-30T09:12:14.344Z,9.20
2022-11-30T09:14:42.605Z,9.30
2022-11-30T09:17:10.862Z,9.30
2022-11-30T09:19:38.953Z,9.30
2022-11-30T09:22:07.121Z,9.40
2022-11-30T09:24:35.223Z,9.30
2022-11-30T09:27:03.322Z,9.40
2022-11-30T09:29:32.860Z,9.50
2022-11-30T09:32:01.271Z,9.60
2022-11-30T09:34:29.610Z,9.50
2022-11-30T09:36:57.904Z,9.50
2022-11-30T09:39:26.720Z,9.60
2022-11-30T09:42:24.690Z,9.60
2022-11-30T09:45:03.433Z,9.50
2022-11-30T09:47:57.607Z,9.80
2022-11-30T09:50:29.055Z,9.70
2022-11-30T09:53:00.454Z,9.60
2022-11-30T09:55:32.167Z,9.40
2022-11-30T09:58:03.756Z,9.40
2022-11-30T10:00:34.857Z,9.40
2022-11-30T10:03:05.761Z,9.30
2022-11-30T10:05:47.941Z,9.30
2022-11-30T10:08:38.529Z,9.40
2022-11-30T10:11:23.201Z,9.30
2022-11-30T10:14:02.760Z,9.50
2022-11-30T10:16:42.946Z,9.40
2022-11-30T10:19:23.535Z,9.40
2022-11-30T10:22:03.775Z,9.50
2022-11-30T10:24:45.487Z,9.50
2022-11-30T10:27:18.718Z,9.70
2022-11-30T10:29:46.582Z,9.60
2022-11-30T10:32:21.034Z,9.60
2022-11-30T10:34:52.736Z,9.90
2022-11-30T10:37:23.804Z,9.80
2022-11-30T10:40:02.062Z,9.70
2022-11-30T10:42:35.405Z,9.60
2022-11-30T10:45:09.305Z,9.60
2022-11-30T10:47:44.058Z,9.70
2022-11-30T10:50:16.027Z,9.50
2022-11-30T10:52:47.896Z,9.40
2022-11-30T10:55:21.129Z,9.30
2022-11-30T10:57:52.260Z,9.40
2022-11-30T11:00:21.081Z,9.40
2022-11-30T11:02:52.059Z,9.30
2022-11-30T11:05:22.906Z,9.40
2022-11-30T11:08:04.703Z,9.40
2022-11-30T11:10:36.685Z,9.50
2022-11-30T11:13:05.569Z,9.50
2022-11-30T11:15:34.888Z,9.60
2022-11-30T11:18:25.283Z,9.70
2022-11-30T11:21:06.125Z,9.90
2022-11-30T11:23:37.488Z,9.90
2022-11-30T11:26:06.442Z,9.90
2022-11-30T11:28:36.449Z,9.90
2022-11-30T11:31:17.110Z,9.80
2022-11-30T11:33:54.247Z,9.80
2022-11-30T11:36:28.567Z,9.80
2022-11-30T11:38:57.188Z,9.80
2022-11-30T11:41:28.199Z,9.80
2022-11-30T11:44:05.572Z,9.90
2022-11-30T11:46:36.336Z,10.00
2022-11-30T11:49:07.496Z,9.90
2022-11-30T11:51:37.773Z,9.80
2022-11-30T11:54:17.570Z,9.90
2022-11-30T11:56:46.294Z,10.00
2022-11-30T11:59:19.663Z,9.90
2022-11-30T12:01:54.275Z,9.90
2022-11-30T12:04:45.459Z,9.80
2022-11-30T12:07:23.677Z,9.70
2022-11-30T12:10:49.827Z,9.70
2022-11-30T12:13:13.967Z,9.60
2022-11-30T12:15:52.572Z,9.60
2022-11-30T12:18:24.646Z,9.60
2022-11-30T12:21:01.431Z,9.70
2022-11-30T12:23:47.286Z,9.60
2022-11-30T12:26:26.080Z,9.60
2022-11-30T12:29:06.561Z,9.70
2022-11-30T12:31:44.772Z,9.70
2022-11-30T12:34:18.221Z,9.60
2022-11-30T12:36:57.624Z,9.50
2022-11-30T12:39:33.509Z,9.60
2022-11-30T12:42:06.059Z,9.60
2022-11-30T12:44:47.211Z,9.50
2022-11-30T12:47:29.144Z,9.50
2022-11-30T12:50:18.162Z,9.50
2022-11-30T12:52:55.466Z,9.30
2022-11-30T12:55:32.447Z,9.20
2022-11-30T12:58:06.504Z,9.20
2022-11-30T13:00:42.607Z,9.30
2022-11-30T13:03:46.161Z,9.30
2022-11-30T13:06:18.171Z,9.50
2022-11-30T13:08:58.011Z,9.50
2022-11-30T13:11:33.086Z,9.50
2022-11-30T13:14:01.880Z,9.40
2022-11-30T13:16:31.802Z,9.50
2022-11-30T13:19:08.729Z,9.40
2022-11-30T13:21:43.020Z,9.50
2022-11-30T13:24:21.045Z,9.50
2022-11-30T13:26:53.932Z,9.40
2022-11-30T13:29:48.562Z,9.50
2022-11-30T13:32:48.995Z,9.50
2022-11-30T13:35:38.993Z,9.40
2022-11-30T13:41:08.504Z,9.50
2022-11-30T13:43:41.592Z,9.40
2022-11-30T13:46:16.220Z,9.30
2022-11-30T13:48:45.167Z,9.20
2022-11-30T13:51:14.021Z,9.30
2022-11-30T13:53:42.489Z,9.40
2022-11-30T13:56:35.184Z,9.50
2022-11-30T13:59:42.691Z,9.50
2022-11-30T14:02:59.927Z,9.40
2022-11-30T14:05:40.960Z,9.30
2022-11-30T14:08:35.330Z,9.30
2022-11-30T14:11:42.399Z,9.40
2022-11-30T14:14:45.825Z,9.40
2022-11-30T14:17:22.979Z,9.30
2022-11-30T14:19:53.358Z,9.40
2022-11-30T14:22:21.934Z,9.30
2022-11-30T14:24:51.260Z,9.30
2022-11-30T14:27:24.156Z,9.30
2022-11-30T14:29:55.633Z,9.30
2022-11-30T14:32:37.784Z,9.20
2022-11-30T14:35:10.557Z,9.30
2022-11-30T14:37:43.224Z,9.20
2022-11-30T14:40:19.165Z,9.20
2022-11-30T14:42:53.782Z,9.30
2022-11-30T14:45:24.134Z,9.20
2022-11-30T14:47:53.933Z,9.20
2022-11-30T14:50:26.115Z,9.30
2022-11-30T14:53:04.269Z,9.40
2022-11-30T14:55:39.397Z,9.40
2022-11-30T14:58:24.168Z,9.40
2022-11-30T15:00:52.233Z,9.40
2022-11-30T15:03:25.831Z,9.10
2022-11-30T15:05:55.608Z,9.00
2022-11-30T15:08:24.716Z,9.00
2022-11-30T15:10:54.684Z,9.20
2022-11-30T15:13:23.949Z,9.20
2022-11-30T15:15:53.906Z,9.30
2022-11-30T15:18:23.497Z,9.30
2022-11-30T15:20:55.421Z,9.40
2022-11-30T15:23:23.870Z,9.40
2022-11-30T15:25:55.566Z,9.40
2022-11-30T15:28:28.857Z,9.40
2022-11-30T15:30:59.878Z,9.50
2022-11-30T15:33:34.773Z,9.40
2022-11-30T15:36:22.838Z,9.40
2022-11-30T15:38:52.737Z,9.30
2022-11-30T15:41:22.322Z,9.30
2022-11-30T15:43:55.446Z,9.20
2022-11-30T15:46:38.617Z,9.30
2022-11-30T15:49:17.501Z,9.40
2022-11-30T15:51:47.277Z,9.40
2022-11-30T15:54:17.875Z,9.40
2022-11-30T15:56:57.391Z,9.20
2022-11-30T15:59:29.415Z,9.20
2022-11-30T16:02:08.360Z,9.10
2022-11-30T16:05:21.914Z,9.20
2022-11-30T16:07:52.792Z,9.20
2022-11-30T16:10:23.743Z,9.10
2022-11-30T16:12:55.364Z,9.10
2022-11-30T16:15:27.315Z,8.90
2022-11-30T16:17:57.955Z,9.00
2022-11-30T16:20:25.807Z,9.00
2022-11-30T16:22:53.737Z,9.10
2022-11-30T16:25:23.300Z,9.10
2022-11-30T16:27:51.575Z,9.10
2022-11-30T16:30:22.326Z,9.10
2022-11-30T16:32:51.649Z,9.00
2022-11-30T16:35:22.543Z,9.10
2022-11-30T16:37:50.673Z,9.10
2022-11-30T16:40:18.927Z,9.00
2022-11-30T16:42:49.673Z,8.90
2022-11-30T16:45:20.810Z,8.90
2022-11-30T16:47:48.900Z,9.00
2022-11-30T16:50:19.202Z,9.00
2022-11-30T16:52:47.327Z,8.90
2022-11-30T16:55:17.245Z,8.80
2022-11-30T16:57:45.536Z,8.70
2022-11-30T17:00:15.734Z,8.80
2022-11-30T17:02:46.476Z,8.80
2022-11-30T17:05:16.175Z,8.80
2022-11-30T17:07:45.508Z,8.70
2022-11-30T17:10:13.941Z,8.70
2022-11-30T17:12:41.928Z,8.70
2022-11-30T17:15:15.252Z,8.80
2022-11-30T17:17:43.308Z,8.80
2022-11-30T17:20:12.925Z,8.80
2022-11-30T17:22:41.765Z,8.60
2022-11-30T17:25:15.627Z,8.70
2022-11-30T17:27:43.653Z,8.80
2022-11-30T17:30:12.901Z,8.80
2022-11-30T17:32:40.702Z,8.80
2022-11-30T17:35:09.232Z,8.70
2022-11-30T17:37:37.427Z,8.80
2022-11-30T17:40:06.963Z,8.70
2022-11-30T17:42:36.129Z,8.70
2022-11-30T17:45:04.148Z,8.70
2022-11-30T17:47:32.015Z,8.50
2022-11-30T17:49:59.822Z,8.50
2022-11-30T17:52:27.663Z,8.70
2022-11-30T17:54:55.510Z,8.70
2022-11-30T17:57:23.408Z,8.60
2022-11-30T17:59:52.582Z,8.70
2022-11-30T18:02:20.480Z,8.60
2022-11-30T18:04:48.583Z,8.60
2022-11-30T18:07:16.965Z,8.60
2022-11-30T18:09:44.803Z,8.60
2022-11-30T18:12:12.954Z,8.60
2022-11-30T18:14:40.738Z,8.50
2022-11-30T18:17:09.982Z,8.50
2022-11-30T18:19:37.824Z,8.50
2022-11-30T18:22:05.647Z,8.50
2022-11-30T18:24:33.488Z,8.50
2022-11-30T18:27:01.345Z,8.40
2022-11-30T18:29:29.291Z,8.40
2022-11-30T18:31:57.092Z,8.30
2022-11-30T18:34:26.279Z,8.40
2022-11-30T18:36:54.084Z,8.40
2022-11-30T18:39:24.773Z,8.50
2022-11-30T18:41:52.721Z,8.40
2022-11-30T18:44:20.602Z,8.50
2022-11-30T18:46:48.455Z,8.50
2022-11-30T18:49:17.443Z,8.40
2022-11-30T18:51:46.581Z,8.20
2022-11-30T18:54:14.377Z,8.40
2022-11-30T18:56:42.235Z,8.30
2022-11-30T18:59:16.649Z,8.30
2022-11-30T19:01:44.626Z,8.20
2022-11-30T19:04:12.725Z,8.30
2022-11-30T19:06:42.297Z,8.40
2022-11-30T19:09:26.446Z,8.30
2022-11-30T19:11:54.288Z,8.40
2022-11-30T19:14:22.097Z,8.30
2022-11-30T19:16:49.928Z,8.30
2022-11-30T19:19:17.829Z,8.30
2022-11-30T19:21:47.678Z,8.40
2022-11-30T19:24:16.037Z,8.40
2022-11-30T19:26:45.235Z,8.40
2022-11-30T19:29:13.586Z,8.50
2022-11-30T19:31:41.571Z,8.50
2022-11-30T19:34:12.926Z,8.60
2022-11-30T19:36:42.178Z,8.50
2022-11-30T19:39:11.550Z,8.40
2022-11-30T19:41:39.989Z,8.40
2022-11-30T19:44:14.634Z,8.40
2022-11-30T19:46:43.126Z,8.50
2022-11-30T19:49:11.706Z,8.50
2022-11-30T19:51:39.637Z,8.50
2022-11-30T19:54:07.566Z,8.40
2022-11-30T19:56:35.755Z,8.40
2022-11-30T19:59:05.550Z,8.40
2022-11-30T20:01:35.735Z,8.30
2022-11-30T20:04:04.162Z,8.30
2022-11-30T20:06:34.216Z,8.20
2022-11-30T20:09:02.098Z,8.30
2022-11-30T20:11:29.960Z,8.40
2022-11-30T20:13:58.349Z,8.40
2022-11-30T20:16:26.270Z,8.40
2022-11-30T20:18:56.735Z,8.30
2022-11-30T20:21:26.257Z,8.40
2022-11-30T20:23:57.804Z,8.40
2022-11-30T20:26:27.561Z,8.40
2022-11-30T20:28:55.362Z,8.30
2022-11-30T20:31:25.015Z,8.20
2022-11-30T20:33:52.947Z,8.20
2022-11-30T20:36:22.826Z,8.10
2022-11-30T20:38:50.690Z,8.10
2022-11-30T20:41:19.986Z,8.10
2022-11-30T20:43:47.893Z,8.20
2022-11-30T20:46:17.057Z,8.20
2022-11-30T20:48:45.554Z,8.20
2022-11-30T20:51:29.977Z,8.10
2022-11-30T20:54:00.533Z,8.10
2022-11-30T20:56:28.383Z,8.20
2022-11-30T20:58:56.356Z,8.20
2022-11-30T21:01:24.430Z,8.10
2022-11-30T21:03:52.453Z,8.10
2022-11-30T21:06:20.313Z,8.00
2022-11-30T21:08:48.145Z,8.00
2022-11-30T21:11:20.112Z,8.10
2022-11-30T21:13:50.313Z,8.10
2022-11-30T21:16:26.947Z,8.20
2022-11-30T21:18:56.114Z,8.10
2022-11-30T21:21:25.633Z,8.20
2022-11-30T21:23:53.619Z,8.30
2022-11-30T21:26:25.314Z,8.20
2022-11-30T21:28:55.622Z,8.30
2022-11-30T21:31:24.708Z,8.20
2022-11-30T21:33:53.951Z,8.20
2022-11-30T21:36:23.150Z,8.10
2022-11-30T21:38:56.135Z,8.20
2022-11-30T21:41:30.167Z,8.30
2022-11-30T21:43:58.168Z,8.20
2022-11-30T21:46:26.141Z,8.20
2022-11-30T21:48:54.085Z,8.30
2022-11-30T21:51:23.959Z,8.10
2022-11-30T21:53:54.184Z,8.00
2022-11-30T21:56:26.715Z,7.90
2022-11-30T21:58:57.006Z,8.10
2022-11-30T22:01:27.484Z,8.20
2022-11-30T22:03:55.951Z,8.00
2022-11-30T22:06:25.696Z,7.90
2022-11-30T22:08:53.561Z,7.80
2022-11-30T22:11:22.823Z,7.90
2022-11-30T22:13:51.631Z,7.90
2022-11-30T22:16:23.015Z,7.90
2022-11-30T22:18:55.241Z,7.90
2022-11-30T22:21:25.322Z,7.80
2022-11-30T22:23:55.409Z,7.80
2022-11-30T22:26:25.089Z,7.90
2022-11-30T22:28:54.525Z,8.00
2022-11-30T22:31:25.352Z,8.10
2022-11-30T22:33:54.141Z,8.00
2022-11-30T22:36:25.374Z,7.90
2022-11-30T22:38:55.918Z,7.70
2022-11-30T22:41:24.948Z,7.70
2022-11-30T22:43:53.108Z,7.50
2022-11-30T22:46:25.142Z,7.30
2022-11-30T22:48:53.772Z,7.40
2022-11-30T22:51:23.673Z,7.40
2022-11-30T22:53:52.268Z,7.30
2022-11-30T22:56:25.319Z,7.20
2022-11-30T22:58:55.223Z,7.20
2022-11-30T23:01:26.476Z,7.30
2022-11-30T23:03:56.593Z,7.30
2022-11-30T23:06:25.388Z,7.20
2022-11-30T23:08:54.285Z,7.10
2022-11-30T23:11:24.421Z,7.20
2022-11-30T23:13:52.740Z,7.20
2022-11-30T23:16:20.741Z,7.20
2022-11-30T23:18:53.928Z,7.20
2022-11-30T23:21:25.691Z,7.20
2022-11-30T23:23:55.690Z,7.10
2022-11-30T23:26:25.262Z,7.10
2022-11-30T23:28:54.711Z,7.00
2022-11-30T23:31:33.835Z,7.10
2022-11-30T23:34:07.331Z,7.00
2022-11-30T23:36:35.714Z,6.90
2022-11-30T23:39:05.932Z,7.00
2022-11-30T23:41:33.891Z,7.10
2022-11-30T23:44:01.946Z,7.00
2022-11-30T23:46:29.807Z,7.10
2022-11-30T23:48:57.707Z,7.00
2022-11-30T23:51:27.906Z,7.00
2022-11-30T23:53:55.802Z,6.90
2022-11-30T23:56:24.614Z,6.80
2022-11-30T23:58:52.871Z,6.90
